sensor_id;sensor_type;location;lat;lon;timestamp;temperature;humidity
21778;DHT22;11050;52.222;20.916;2024-01-30T00:01:55;0.50;99.90
21778;DHT22;11050;52.222;20.916;2024-01-30T00:04:21;0.40;99.90
21778;DHT22;11050;52.222;20.916;2024-01-30T00:06:47;0.50;99.90
21778;DHT22;11050;52.222;20.916;2024-01-30T00:09:13;0.40;99.90
21778;DHT22;11050;52.222;20.916;2024-01-30T00:11:39;0.40;99.90
21778;DHT22;11050;52.222;20.916;2024-01-30T00:14:05;0.40;99.90
21778;DHT22;11050;52.222;20.916;2024-01-30T00:16:32;0.40;99.90
21778;DHT22;11050;52.222;20.916;2024-01-30T00:18:58;0.40;99.90
21778;DHT22;11050;52.222;20.916;2024-01-30T00:21:25;0.40;99.90
21778;DHT22;11050;52.222;20.916;2024-01-30T00:23:50;0.30;99.90
21778;DHT22;11050;52.222;20.916;2024-01-30T00:26:16;0.30;99.90
21778;DHT22;11050;52.222;20.916;2024-01-30T00:28:42;0.30;99.90
21778;DHT22;11050;52.222;20.916;2024-01-30T00:31:09;0.30;99.90
21778;DHT22;11050;52.222;20.916;2024-01-30T00:33:38;0.20;99.90
21778;DHT22;11050;52.222;20.916;2024-01-30T00:36:05;0.20;99.90
21778;DHT22;11050;52.222;20.916;2024-01-30T00:38:32;0.20;99.90
21778;DHT22;11050;52.222;20.916;2024-01-30T00:40:58;0.20;99.90
21778;DHT22;11050;52.222;20.916;2024-01-30T00:43:24;0.20;99.90
21778;DHT22;11050;52.222;20.916;2024-01-30T00:45:53;0.20;99.90
21778;DHT22;11050;52.222;20.916;2024-01-30T00:48:19;0.10;99.90
21778;DHT22;11050;52.222;20.916;2024-01-30T00:50:45;0.10;99.90
21778;DHT22;11050;52.222;20.916;2024-01-30T00:53:11;0.10;99.90
21778;DHT22;11050;52.222;20.916;2024-01-30T00:55:37;0.10;99.90
21778;DHT22;11050;52.222;20.916;2024-01-30T00:58:03;0.10;99.90
21778;DHT22;11050;52.222;20.916;2024-01-30T01:00:29;0.10;99.90
21778;DHT22;11050;52.222;20.916;2024-01-30T01:02:55;0.20;99.90
21778;DHT22;11050;52.222;20.916;2024-01-30T01:05:21;0.10;99.90
21778;DHT22;11050;52.222;20.916;2024-01-30T01:07:47;0.20;99.90
21778;DHT22;11050;52.222;20.916;2024-01-30T01:10:14;0.20;99.90
21778;DHT22;11050;52.222;20.916;2024-01-30T01:12:41;0.20;99.90
21778;DHT22;11050;52.222;20.916;2024-01-30T01:15:08;0.20;99.90
21778;DHT22;11050;52.222;20.916;2024-01-30T01:17:37;0.20;99.90
21778;DHT22;11050;52.222;20.916;2024-01-30T01:20:05;0.20;99.90
21778;DHT22;11050;52.222;20.916;2024-01-30T01:22:33;0.20;99.90
21778;DHT22;11050;52.222;20.916;2024-01-30T01:25:00;0.20;99.90
21778;DHT22;11050;52.222;20.916;2024-01-30T01:27:27;0.20;99.90
21778;DHT22;11050;52.222;20.916;2024-01-30T01:29:53;0.20;99.90
21778;DHT22;11050;52.222;20.916;2024-01-30T01:32:19;0.20;99.90
21778;DHT22;11050;52.222;20.916;2024-01-30T01:34:45;0.20;99.90
21778;DHT22;11050;52.222;20.916;2024-01-30T01:37:10;0.20;99.90
21778;DHT22;11050;52.222;20.916;2024-01-30T01:39:36;0.20;99.90
21778;DHT22;11050;52.222;20.916;2024-01-30T01:42:02;0.10;99.90
21778;DHT22;11050;52.222;20.916;2024-01-30T01:44:28;0.10;99.90
21778;DHT22;11050;52.222;20.916;2024-01-30T01:46:54;0.10;99.90
21778;DHT22;11050;52.222;20.916;2024-01-30T01:49:24;0.10;99.90
21778;DHT22;11050;52.222;20.916;2024-01-30T01:51:51;0.10;99.90
21778;DHT22;11050;52.222;20.916;2024-01-30T01:54:22;0.10;99.90
21778;DHT22;11050;52.222;20.916;2024-01-30T01:56:51;0.10;99.90
21778;DHT22;11050;52.222;20.916;2024-01-30T01:59:18;0.10;99.90
21778;DHT22;11050;52.222;20.916;2024-01-30T02:01:46;0.10;99.90
21778;DHT22;11050;52.222;20.916;2024-01-30T02:04:15;0.10;99.90
21778;DHT22;11050;52.222;20.916;2024-01-30T02:06:42;0.10;99.90
21778;DHT22;11050;52.222;20.916;2024-01-30T02:09:09;0.10;99.90
21778;DHT22;11050;52.222;20.916;2024-01-30T02:11:34;0.10;99.90
21778;DHT22;11050;52.222;20.916;2024-01-30T02:14:04;0.10;99.90
21778;DHT22;11050;52.222;20.916;2024-01-30T02:16:31;0.10;99.90
21778;DHT22;11050;52.222;20.916;2024-01-30T02:18:57;0.10;99.90
21778;DHT22;11050;52.222;20.916;2024-01-30T02:21:23;0.00;99.90
21778;DHT22;11050;52.222;20.916;2024-01-30T02:23:50;0.00;99.90
21778;DHT22;11050;52.222;20.916;2024-01-30T02:26:18;0.00;99.90
21778;DHT22;11050;52.222;20.916;2024-01-30T02:28:43;0.00;99.90
21778;DHT22;11050;52.222;20.916;2024-01-30T02:31:09;0.00;99.90
21778;DHT22;11050;52.222;20.916;2024-01-30T02:33:35;0.00;99.90
21778;DHT22;11050;52.222;20.916;2024-01-30T02:36:00;0.00;99.90
21778;DHT22;11050;52.222;20.916;2024-01-30T02:38:26;0.00;99.90
21778;DHT22;11050;52.222;20.916;2024-01-30T02:40:52;0.00;99.90
21778;DHT22;11050;52.222;20.916;2024-01-30T02:43:18;0.00;99.90
21778;DHT22;11050;52.222;20.916;2024-01-30T02:45:44;0.00;99.90
21778;DHT22;11050;52.222;20.916;2024-01-30T02:48:10;0.00;99.90
21778;DHT22;11050;52.222;20.916;2024-01-30T02:50:36;-0.10;99.90
21778;DHT22;11050;52.222;20.916;2024-01-30T02:53:01;-0.10;99.90
21778;DHT22;11050;52.222;20.916;2024-01-30T02:55:27;-0.10;99.90
21778;DHT22;11050;52.222;20.916;2024-01-30T02:57:53;-0.10;99.90
21778;DHT22;11050;52.222;20.916;2024-01-30T03:00:19;-0.10;99.90
21778;DHT22;11050;52.222;20.916;2024-01-30T03:02:45;-0.10;99.90
21778;DHT22;11050;52.222;20.916;2024-01-30T03:05:11;-0.10;99.90
21778;DHT22;11050;52.222;20.916;2024-01-30T03:07:37;-0.10;99.90
21778;DHT22;11050;52.222;20.916;2024-01-30T03:10:04;0.00;99.90
21778;DHT22;11050;52.222;20.916;2024-01-30T03:12:31;0.00;99.90
21778;DHT22;11050;52.222;20.916;2024-01-30T03:14:57;0.00;99.90
21778;DHT22;11050;52.222;20.916;2024-01-30T03:17:23;0.00;99.90
21778;DHT22;11050;52.222;20.916;2024-01-30T03:19:49;0.00;99.90
21778;DHT22;11050;52.222;20.916;2024-01-30T03:22:15;0.00;99.90
21778;DHT22;11050;52.222;20.916;2024-01-30T03:24:41;0.10;99.90
21778;DHT22;11050;52.222;20.916;2024-01-30T03:27:08;0.00;99.90
21778;DHT22;11050;52.222;20.916;2024-01-30T03:29:34;0.00;99.90
21778;DHT22;11050;52.222;20.916;2024-01-30T03:32:00;0.00;99.90
21778;DHT22;11050;52.222;20.916;2024-01-30T03:34:25;0.00;99.90
21778;DHT22;11050;52.222;20.916;2024-01-30T03:36:51;0.00;99.90
21778;DHT22;11050;52.222;20.916;2024-01-30T03:39:17;0.00;99.90
21778;DHT22;11050;52.222;20.916;2024-01-30T03:41:43;0.00;99.90
21778;DHT22;11050;52.222;20.916;2024-01-30T03:44:10;-0.10;99.90
21778;DHT22;11050;52.222;20.916;2024-01-30T03:46:36;0.00;99.90
21778;DHT22;11050;52.222;20.916;2024-01-30T03:49:02;-0.10;99.90
21778;DHT22;11050;52.222;20.916;2024-01-30T03:51:28;0.00;99.90
21778;DHT22;11050;52.222;20.916;2024-01-30T03:53:53;-0.10;99.90
21778;DHT22;11050;52.222;20.916;2024-01-30T03:56:19;-0.10;99.90
21778;DHT22;11050;52.222;20.916;2024-01-30T03:58:45;-0.10;99.90
21778;DHT22;11050;52.222;20.916;2024-01-30T04:01:14;-0.10;99.90
21778;DHT22;11050;52.222;20.916;2024-01-30T04:03:40;-0.10;99.90
21778;DHT22;11050;52.222;20.916;2024-01-30T04:06:06;-0.20;99.90
21778;DHT22;11050;52.222;20.916;2024-01-30T04:08:32;-0.10;99.90
21778;DHT22;11050;52.222;20.916;2024-01-30T04:10:58;-0.20;99.90
21778;DHT22;11050;52.222;20.916;2024-01-30T04:13:23;-0.20;99.90
21778;DHT22;11050;52.222;20.916;2024-01-30T04:15:49;-0.20;99.90
21778;DHT22;11050;52.222;20.916;2024-01-30T04:18:15;-0.10;99.90
21778;DHT22;11050;52.222;20.916;2024-01-30T04:20:40;-0.20;99.90
21778;DHT22;11050;52.222;20.916;2024-01-30T04:23:06;-0.20;99.90
21778;DHT22;11050;52.222;20.916;2024-01-30T04:25:32;-0.20;99.90
21778;DHT22;11050;52.222;20.916;2024-01-30T04:27:58;-0.20;99.90
21778;DHT22;11050;52.222;20.916;2024-01-30T04:30:23;-0.20;99.90
21778;DHT22;11050;52.222;20.916;2024-01-30T04:32:49;-0.20;99.90
21778;DHT22;11050;52.222;20.916;2024-01-30T04:35:15;-0.20;99.90
21778;DHT22;11050;52.222;20.916;2024-01-30T04:37:40;-0.20;99.90
21778;DHT22;11050;52.222;20.916;2024-01-30T04:40:06;-0.20;99.90
21778;DHT22;11050;52.222;20.916;2024-01-30T04:42:33;-0.20;99.90
21778;DHT22;11050;52.222;20.916;2024-01-30T04:44:59;-0.20;99.90
21778;DHT22;11050;52.222;20.916;2024-01-30T04:47:25;-0.30;99.90
21778;DHT22;11050;52.222;20.916;2024-01-30T04:49:51;-0.20;99.90
21778;DHT22;11050;52.222;20.916;2024-01-30T04:52:17;-0.20;99.90
21778;DHT22;11050;52.222;20.916;2024-01-30T04:54:43;-0.20;99.90
21778;DHT22;11050;52.222;20.916;2024-01-30T04:57:09;-0.20;99.90
21778;DHT22;11050;52.222;20.916;2024-01-30T04:59:37;-0.30;99.90
21778;DHT22;11050;52.222;20.916;2024-01-30T05:02:03;-0.30;99.90
21778;DHT22;11050;52.222;20.916;2024-01-30T05:04:29;-0.20;99.90
21778;DHT22;11050;52.222;20.916;2024-01-30T05:06:55;-0.20;99.90
21778;DHT22;11050;52.222;20.916;2024-01-30T05:09:20;-0.20;99.90
21778;DHT22;11050;52.222;20.916;2024-01-30T05:11:46;-0.30;99.90
21778;DHT22;11050;52.222;20.916;2024-01-30T05:14:12;-0.20;99.90
21778;DHT22;11050;52.222;20.916;2024-01-30T05:16:40;-0.20;99.90
21778;DHT22;11050;52.222;20.916;2024-01-30T05:19:07;-0.20;99.90
21778;DHT22;11050;52.222;20.916;2024-01-30T05:21:32;-0.30;99.90
21778;DHT22;11050;52.222;20.916;2024-01-30T05:23:58;-0.20;99.90
21778;DHT22;11050;52.222;20.916;2024-01-30T05:26:24;-0.20;99.90
21778;DHT22;11050;52.222;20.916;2024-01-30T05:28:50;-0.30;99.90
21778;DHT22;11050;52.222;20.916;2024-01-30T05:31:15;-0.30;99.90
21778;DHT22;11050;52.222;20.916;2024-01-30T05:33:41;-0.30;99.90
21778;DHT22;11050;52.222;20.916;2024-01-30T05:36:07;-0.20;99.90
21778;DHT22;11050;52.222;20.916;2024-01-30T05:38:33;-0.30;99.90
21778;DHT22;11050;52.222;20.916;2024-01-30T05:40:58;-0.20;99.90
21778;DHT22;11050;52.222;20.916;2024-01-30T05:43:25;-0.30;99.90
21778;DHT22;11050;52.222;20.916;2024-01-30T05:45:51;-0.30;99.90
21778;DHT22;11050;52.222;20.916;2024-01-30T05:48:17;-0.30;99.90
21778;DHT22;11050;52.222;20.916;2024-01-30T05:50:43;-0.30;99.90
21778;DHT22;11050;52.222;20.916;2024-01-30T05:53:10;-0.30;99.90
21778;DHT22;11050;52.222;20.916;2024-01-30T05:55:36;-0.30;99.90
21778;DHT22;11050;52.222;20.916;2024-01-30T05:58:02;-0.30;99.90
21778;DHT22;11050;52.222;20.916;2024-01-30T06:00:29;-0.30;99.90
21778;DHT22;11050;52.222;20.916;2024-01-30T06:02:55;-0.30;99.90
21778;DHT22;11050;52.222;20.916;2024-01-30T06:05:21;-0.30;99.90
21778;DHT22;11050;52.222;20.916;2024-01-30T06:07:46;-0.30;99.90
21778;DHT22;11050;52.222;20.916;2024-01-30T06:10:12;-0.30;99.90
21778;DHT22;11050;52.222;20.916;2024-01-30T06:12:38;-0.30;99.90
21778;DHT22;11050;52.222;20.916;2024-01-30T06:15:05;-0.30;99.90
21778;DHT22;11050;52.222;20.916;2024-01-30T06:17:32;-0.30;99.90
21778;DHT22;11050;52.222;20.916;2024-01-30T06:19:58;-0.30;99.90
21778;DHT22;11050;52.222;20.916;2024-01-30T06:22:24;-0.30;99.90
21778;DHT22;11050;52.222;20.916;2024-01-30T06:24:49;-0.30;99.90
21778;DHT22;11050;52.222;20.916;2024-01-30T06:27:15;-0.30;99.90
21778;DHT22;11050;52.222;20.916;2024-01-30T06:29:43;-0.30;99.90
21778;DHT22;11050;52.222;20.916;2024-01-30T06:32:09;-0.30;99.90
21778;DHT22;11050;52.222;20.916;2024-01-30T06:34:34;-0.30;99.90
21778;DHT22;11050;52.222;20.916;2024-01-30T06:37:00;-0.30;99.90
21778;DHT22;11050;52.222;20.916;2024-01-30T06:39:26;-0.30;99.90
21778;DHT22;11050;52.222;20.916;2024-01-30T06:41:52;-0.20;99.90
21778;DHT22;11050;52.222;20.916;2024-01-30T06:44:18;-0.20;99.90
21778;DHT22;11050;52.222;20.916;2024-01-30T06:46:44;-0.20;99.90
21778;DHT22;11050;52.222;20.916;2024-01-30T06:49:10;-0.20;99.90
21778;DHT22;11050;52.222;20.916;2024-01-30T06:51:36;-0.20;99.90
21778;DHT22;11050;52.222;20.916;2024-01-30T06:54:02;-0.10;99.90
21778;DHT22;11050;52.222;20.916;2024-01-30T06:56:28;-0.10;99.90
21778;DHT22;11050;52.222;20.916;2024-01-30T06:58:54;-0.10;99.90
21778;DHT22;11050;52.222;20.916;2024-01-30T07:01:19;0.00;99.90
21778;DHT22;11050;52.222;20.916;2024-01-30T07:03:46;0.00;99.90
21778;DHT22;11050;52.222;20.916;2024-01-30T07:06:12;0.10;99.90
21778;DHT22;11050;52.222;20.916;2024-01-30T07:08:38;0.10;99.90
21778;DHT22;11050;52.222;20.916;2024-01-30T07:11:07;0.20;99.90
21778;DHT22;11050;52.222;20.916;2024-01-30T07:13:34;0.20;99.90
21778;DHT22;11050;52.222;20.916;2024-01-30T07:16:00;0.30;99.90
21778;DHT22;11050;52.222;20.916;2024-01-30T07:18:26;0.30;99.90
21778;DHT22;11050;52.222;20.916;2024-01-30T07:20:52;0.30;99.90
21778;DHT22;11050;52.222;20.916;2024-01-30T07:23:17;0.40;99.90
21778;DHT22;11050;52.222;20.916;2024-01-30T07:25:44;0.50;99.90
21778;DHT22;11050;52.222;20.916;2024-01-30T07:28:10;0.50;99.90
21778;DHT22;11050;52.222;20.916;2024-01-30T07:30:37;0.60;99.90
21778;DHT22;11050;52.222;20.916;2024-01-30T07:33:04;0.70;99.90
21778;DHT22;11050;52.222;20.916;2024-01-30T07:35:30;0.80;99.90
21778;DHT22;11050;52.222;20.916;2024-01-30T07:37:56;0.90;99.90
21778;DHT22;11050;52.222;20.916;2024-01-30T07:40:22;0.90;99.90
21778;DHT22;11050;52.222;20.916;2024-01-30T07:42:49;1.00;99.90
21778;DHT22;11050;52.222;20.916;2024-01-30T07:45:15;1.10;99.90
21778;DHT22;11050;52.222;20.916;2024-01-30T07:47:41;1.10;99.90
21778;DHT22;11050;52.222;20.916;2024-01-30T07:50:08;1.20;99.90
21778;DHT22;11050;52.222;20.916;2024-01-30T07:52:34;1.30;99.90
21778;DHT22;11050;52.222;20.916;2024-01-30T07:55:00;1.40;99.90
21778;DHT22;11050;52.222;20.916;2024-01-30T07:57:26;1.50;99.90
21778;DHT22;11050;52.222;20.916;2024-01-30T07:59:52;1.50;99.90
21778;DHT22;11050;52.222;20.916;2024-01-30T08:02:17;1.60;99.90
21778;DHT22;11050;52.222;20.916;2024-01-30T08:04:43;1.70;99.90
21778;DHT22;11050;52.222;20.916;2024-01-30T08:07:14;1.70;99.90
21778;DHT22;11050;52.222;20.916;2024-01-30T08:09:39;1.80;99.90
21778;DHT22;11050;52.222;20.916;2024-01-30T08:12:05;1.90;99.90
21778;DHT22;11050;52.222;20.916;2024-01-30T08:14:31;2.00;99.90
21778;DHT22;11050;52.222;20.916;2024-01-30T08:16:57;2.00;99.90
21778;DHT22;11050;52.222;20.916;2024-01-30T08:19:23;2.10;99.90
21778;DHT22;11050;52.222;20.916;2024-01-30T08:21:48;2.20;99.90
21778;DHT22;11050;52.222;20.916;2024-01-30T08:24:14;2.30;99.90
21778;DHT22;11050;52.222;20.916;2024-01-30T08:26:40;2.30;99.90
21778;DHT22;11050;52.222;20.916;2024-01-30T08:29:06;2.40;99.90
21778;DHT22;11050;52.222;20.916;2024-01-30T08:31:31;2.40;99.90
21778;DHT22;11050;52.222;20.916;2024-01-30T08:33:57;2.50;99.90
21778;DHT22;11050;52.222;20.916;2024-01-30T08:36:23;2.60;99.90
21778;DHT22;11050;52.222;20.916;2024-01-30T08:38:48;2.70;99.90
21778;DHT22;11050;52.222;20.916;2024-01-30T08:41:14;2.80;99.90
21778;DHT22;11050;52.222;20.916;2024-01-30T08:43:40;2.90;99.90
21778;DHT22;11050;52.222;20.916;2024-01-30T08:46:06;2.90;99.90
21778;DHT22;11050;52.222;20.916;2024-01-30T08:48:32;3.00;99.90
21778;DHT22;11050;52.222;20.916;2024-01-30T08:50:57;3.10;99.90
21778;DHT22;11050;52.222;20.916;2024-01-30T08:53:23;3.20;99.90
21778;DHT22;11050;52.222;20.916;2024-01-30T08:55:50;3.30;99.90
21778;DHT22;11050;52.222;20.916;2024-01-30T08:58:16;3.30;99.90
21778;DHT22;11050;52.222;20.916;2024-01-30T09:00:44;3.40;99.90
21778;DHT22;11050;52.222;20.916;2024-01-30T09:03:10;3.50;99.90
21778;DHT22;11050;52.222;20.916;2024-01-30T09:05:36;3.70;99.90
21778;DHT22;11050;52.222;20.916;2024-01-30T09:08:01;3.70;99.90
21778;DHT22;11050;52.222;20.916;2024-01-30T09:10:27;3.80;99.90
21778;DHT22;11050;52.222;20.916;2024-01-30T09:12:53;3.90;99.90
21778;DHT22;11050;52.222;20.916;2024-01-30T09:15:19;4.00;99.90
21778;DHT22;11050;52.222;20.916;2024-01-30T09:17:44;4.10;99.90
21778;DHT22;11050;52.222;20.916;2024-01-30T09:20:10;4.20;99.90
21778;DHT22;11050;52.222;20.916;2024-01-30T09:22:37;4.30;99.90
21778;DHT22;11050;52.222;20.916;2024-01-30T09:25:02;4.40;99.90
21778;DHT22;11050;52.222;20.916;2024-01-30T09:27:28;4.40;99.90
21778;DHT22;11050;52.222;20.916;2024-01-30T09:29:54;4.50;99.90
21778;DHT22;11050;52.222;20.916;2024-01-30T09:32:20;4.60;99.90
21778;DHT22;11050;52.222;20.916;2024-01-30T09:34:46;4.70;99.90
21778;DHT22;11050;52.222;20.916;2024-01-30T09:37:11;4.80;99.90
21778;DHT22;11050;52.222;20.916;2024-01-30T09:39:37;4.80;99.90
21778;DHT22;11050;52.222;20.916;2024-01-30T09:44:47;5.00;99.90
21778;DHT22;11050;52.222;20.916;2024-01-30T09:47:17;5.10;99.90
21778;DHT22;11050;52.222;20.916;2024-01-30T09:49:43;5.20;99.90
21778;DHT22;11050;52.222;20.916;2024-01-30T09:52:09;5.30;99.90
21778;DHT22;11050;52.222;20.916;2024-01-30T09:54:36;5.30;99.90
21778;DHT22;11050;52.222;20.916;2024-01-30T09:57:04;5.40;99.90
21778;DHT22;11050;52.222;20.916;2024-01-30T09:59:31;5.50;99.90
21778;DHT22;11050;52.222;20.916;2024-01-30T10:01:57;5.60;99.90
21778;DHT22;11050;52.222;20.916;2024-01-30T10:04:23;5.70;99.90
21778;DHT22;11050;52.222;20.916;2024-01-30T10:06:50;5.80;99.90
21778;DHT22;11050;52.222;20.916;2024-01-30T10:09:16;5.90;99.90
21778;DHT22;11050;52.222;20.916;2024-01-30T10:11:42;6.00;99.90
21778;DHT22;11050;52.222;20.916;2024-01-30T10:14:08;6.10;99.90
21778;DHT22;11050;52.222;20.916;2024-01-30T10:16:36;6.20;99.90
21778;DHT22;11050;52.222;20.916;2024-01-30T10:19:02;6.20;99.90
21778;DHT22;11050;52.222;20.916;2024-01-30T10:21:29;6.40;99.90
21778;DHT22;11050;52.222;20.916;2024-01-30T10:23:56;6.50;99.90
21778;DHT22;11050;52.222;20.916;2024-01-30T10:26:21;6.60;99.90
21778;DHT22;11050;52.222;20.916;2024-01-30T10:28:48;6.70;99.90
21778;DHT22;11050;52.222;20.916;2024-01-30T10:31:18;6.80;99.90
21778;DHT22;11050;52.222;20.916;2024-01-30T10:33:44;6.90;99.90
21778;DHT22;11050;52.222;20.916;2024-01-30T10:36:13;7.00;99.90
21778;DHT22;11050;52.222;20.916;2024-01-30T10:38:43;7.10;99.90
21778;DHT22;11050;52.222;20.916;2024-01-30T10:41:13;7.20;99.90
21778;DHT22;11050;52.222;20.916;2024-01-30T10:43:50;7.30;99.90
21778;DHT22;11050;52.222;20.916;2024-01-30T10:46:31;7.40;99.90
21778;DHT22;11050;52.222;20.916;2024-01-30T10:48:58;7.50;99.90
21778;DHT22;11050;52.222;20.916;2024-01-30T10:51:26;7.50;99.90
21778;DHT22;11050;52.222;20.916;2024-01-30T10:53:53;7.60;99.90
21778;DHT22;11050;52.222;20.916;2024-01-30T10:56:22;7.70;99.90
21778;DHT22;11050;52.222;20.916;2024-01-30T10:58:50;7.80;98.00
21778;DHT22;11050;52.222;20.916;2024-01-30T11:01:22;7.90;97.70
21778;DHT22;11050;52.222;20.916;2024-01-30T11:03:52;8.00;96.30
21778;DHT22;11050;52.222;20.916;2024-01-30T11:06:22;8.10;95.40
21778;DHT22;11050;52.222;20.916;2024-01-30T11:09:05;8.30;95.80
21778;DHT22;11050;52.222;20.916;2024-01-30T11:11:51;8.50;93.60
21778;DHT22;11050;52.222;20.916;2024-01-30T11:14:31;8.70;92.70
21778;DHT22;11050;52.222;20.916;2024-01-30T11:16:59;8.90;91.90
21778;DHT22;11050;52.222;20.916;2024-01-30T11:19:26;9.10;91.10
21778;DHT22;11050;52.222;20.916;2024-01-30T11:21:55;9.30;89.10
21778;DHT22;11050;52.222;20.916;2024-01-30T11:24:23;9.60;86.20
21778;DHT22;11050;52.222;20.916;2024-01-30T11:26:55;9.80;84.30
21778;DHT22;11050;52.222;20.916;2024-01-30T11:29:27;10.00;81.60
21778;DHT22;11050;52.222;20.916;2024-01-30T11:31:54;10.20;78.90
21778;DHT22;11050;52.222;20.916;2024-01-30T11:34:21;10.40;77.00
21778;DHT22;11050;52.222;20.916;2024-01-30T11:36:57;10.70;76.30
21778;DHT22;11050;52.222;20.916;2024-01-30T11:39:25;10.90;73.20
21778;DHT22;11050;52.222;20.916;2024-01-30T11:41:54;11.20;71.30
21778;DHT22;11050;52.222;20.916;2024-01-30T11:44:20;11.40;70.20
21778;DHT22;11050;52.222;20.916;2024-01-30T11:46:51;11.60;67.50
21778;DHT22;11050;52.222;20.916;2024-01-30T11:49:18;11.80;66.10
21778;DHT22;11050;52.222;20.916;2024-01-30T11:51:47;11.90;64.40
21778;DHT22;11050;52.222;20.916;2024-01-30T11:54:17;11.90;63.00
21778;DHT22;11050;52.222;20.916;2024-01-30T11:56:43;12.00;62.70
21778;DHT22;11050;52.222;20.916;2024-01-30T11:59:09;12.20;62.20
21778;DHT22;11050;52.222;20.916;2024-01-30T12:01:35;12.30;62.00
21778;DHT22;11050;52.222;20.916;2024-01-30T12:04:02;12.50;61.50
21778;DHT22;11050;52.222;20.916;2024-01-30T12:06:28;12.70;59.60
21778;DHT22;11050;52.222;20.916;2024-01-30T12:09:03;12.80;58.30
21778;DHT22;11050;52.222;20.916;2024-01-30T12:11:53;12.80;58.20
21778;DHT22;11050;52.222;20.916;2024-01-30T12:14:19;13.00;58.60
21778;DHT22;11050;52.222;20.916;2024-01-30T12:16:48;13.20;58.30
21778;DHT22;11050;52.222;20.916;2024-01-30T12:19:23;13.30;57.50
21778;DHT22;11050;52.222;20.916;2024-01-30T12:21:59;13.50;57.00
21778;DHT22;11050;52.222;20.916;2024-01-30T12:24:28;13.70;56.80
21778;DHT22;11050;52.222;20.916;2024-01-30T12:26:58;13.90;56.40
21778;DHT22;11050;52.222;20.916;2024-01-30T12:29:24;14.00;55.90
21778;DHT22;11050;52.222;20.916;2024-01-30T12:31:53;14.20;54.60
21778;DHT22;11050;52.222;20.916;2024-01-30T12:34:20;14.30;54.00
21778;DHT22;11050;52.222;20.916;2024-01-30T12:36:49;14.20;53.30
21778;DHT22;11050;52.222;20.916;2024-01-30T12:39:15;14.20;53.90
21778;DHT22;11050;52.222;20.916;2024-01-30T12:41:41;14.30;54.70
21778;DHT22;11050;52.222;20.916;2024-01-30T12:44:08;14.40;53.00
21778;DHT22;11050;52.222;20.916;2024-01-30T12:46:36;14.60;53.10
21778;DHT22;11050;52.222;20.916;2024-01-30T12:49:02;14.80;52.70
21778;DHT22;11050;52.222;20.916;2024-01-30T12:51:28;14.80;51.90
21778;DHT22;11050;52.222;20.916;2024-01-30T12:53:54;14.80;51.90
21778;DHT22;11050;52.222;20.916;2024-01-30T12:56:20;14.90;51.90
21778;DHT22;11050;52.222;20.916;2024-01-30T12:58:46;15.00;52.20
21778;DHT22;11050;52.222;20.916;2024-01-30T13:01:12;15.20;51.20
21778;DHT22;11050;52.222;20.916;2024-01-30T13:03:37;15.30;50.40
21778;DHT22;11050;52.222;20.916;2024-01-30T13:06:03;15.40;49.70
21778;DHT22;11050;52.222;20.916;2024-01-30T13:08:29;15.40;49.40
21778;DHT22;11050;52.222;20.916;2024-01-30T13:10:55;15.30;49.30
21778;DHT22;11050;52.222;20.916;2024-01-30T13:13:21;15.30;49.40
21778;DHT22;11050;52.222;20.916;2024-01-30T13:15:47;15.30;49.40
21778;DHT22;11050;52.222;20.916;2024-01-30T13:18:14;15.30;49.60
21778;DHT22;11050;52.222;20.916;2024-01-30T13:20:39;15.20;49.60
21778;DHT22;11050;52.222;20.916;2024-01-30T13:23:05;15.30;49.40
21778;DHT22;11050;52.222;20.916;2024-01-30T13:25:31;15.30;49.20
21778;DHT22;11050;52.222;20.916;2024-01-30T13:27:56;15.20;49.60
21778;DHT22;11050;52.222;20.916;2024-01-30T13:30:22;15.30;49.60
21778;DHT22;11050;52.222;20.916;2024-01-30T13:32:48;15.40;49.30
21778;DHT22;11050;52.222;20.916;2024-01-30T13:35:14;15.50;49.20
21778;DHT22;11050;52.222;20.916;2024-01-30T13:37:39;15.50;48.80
21778;DHT22;11050;52.222;20.916;2024-01-30T13:40:07;15.40;48.70
21778;DHT22;11050;52.222;20.916;2024-01-30T13:42:34;15.40;48.80
21778;DHT22;11050;52.222;20.916;2024-01-30T13:45:00;15.40;48.70
21778;DHT22;11050;52.222;20.916;2024-01-30T13:47:26;15.40;48.80
21778;DHT22;11050;52.222;20.916;2024-01-30T13:49:52;15.30;48.70
21778;DHT22;11050;52.222;20.916;2024-01-30T13:52:18;15.10;48.90
21778;DHT22;11050;52.222;20.916;2024-01-30T13:54:44;15.00;48.90
21778;DHT22;11050;52.222;20.916;2024-01-30T13:57:10;14.90;49.00
21778;DHT22;11050;52.222;20.916;2024-01-30T13:59:38;14.80;49.30
21778;DHT22;11050;52.222;20.916;2024-01-30T14:02:03;14.80;49.40
21778;DHT22;11050;52.222;20.916;2024-01-30T14:04:29;14.90;49.30
21778;DHT22;11050;52.222;20.916;2024-01-30T14:06:55;14.90;49.60
21778;DHT22;11050;52.222;20.916;2024-01-30T14:09:21;14.90;49.40
21778;DHT22;11050;52.222;20.916;2024-01-30T14:11:46;14.80;49.40
21778;DHT22;11050;52.222;20.916;2024-01-30T14:14:12;14.80;49.50
21778;DHT22;11050;52.222;20.916;2024-01-30T14:16:38;14.80;49.60
21778;DHT22;11050;52.222;20.916;2024-01-30T14:19:04;14.80;49.40
21778;DHT22;11050;52.222;20.916;2024-01-30T14:21:30;14.80;49.80
21778;DHT22;11050;52.222;20.916;2024-01-30T14:23:56;14.80;49.60
21778;DHT22;11050;52.222;20.916;2024-01-30T14:26:22;14.70;49.50
21778;DHT22;11050;52.222;20.916;2024-01-30T14:28:48;14.60;49.60
21778;DHT22;11050;52.222;20.916;2024-01-30T14:31:13;14.60;49.90
21778;DHT22;11050;52.222;20.916;2024-01-30T14:33:39;14.40;50.00
21778;DHT22;11050;52.222;20.916;2024-01-30T14:36:05;14.40;50.20
21778;DHT22;11050;52.222;20.916;2024-01-30T14:38:33;14.30;50.30
21778;DHT22;11050;52.222;20.916;2024-01-30T14:40:59;14.10;50.50
21778;DHT22;11050;52.222;20.916;2024-01-30T14:43:24;13.90;51.20
21778;DHT22;11050;52.222;20.916;2024-01-30T14:45:50;13.70;51.30
21778;DHT22;11050;52.222;20.916;2024-01-30T14:48:17;13.50;51.80
21778;DHT22;11050;52.222;20.916;2024-01-30T14:50:43;13.20;52.30
21778;DHT22;11050;52.222;20.916;2024-01-30T14:53:09;12.80;53.30
21778;DHT22;11050;52.222;20.916;2024-01-30T14:55:35;12.60;54.10
21778;DHT22;11050;52.222;20.916;2024-01-30T14:58:00;12.40;54.80
21778;DHT22;11050;52.222;20.916;2024-01-30T15:00:27;12.20;55.30
21778;DHT22;11050;52.222;20.916;2024-01-30T15:02:53;12.00;55.90
21778;DHT22;11050;52.222;20.916;2024-01-30T15:05:19;11.90;56.40
21778;DHT22;11050;52.222;20.916;2024-01-30T15:07:44;11.60;57.00
21778;DHT22;11050;52.222;20.916;2024-01-30T15:10:10;11.40;57.80
21778;DHT22;11050;52.222;20.916;2024-01-30T15:12:36;11.10;58.30
21778;DHT22;11050;52.222;20.916;2024-01-30T15:15:03;10.80;59.20
21778;DHT22;11050;52.222;20.916;2024-01-30T15:17:30;10.40;59.90
21778;DHT22;11050;52.222;20.916;2024-01-30T15:19:56;10.10;61.20
21778;DHT22;11050;52.222;20.916;2024-01-30T15:22:23;9.80;62.70